createdAt,value
2018-07-23T00:00:53.967Z,0.00
2018-07-23T00:01:53.962Z,0.00
2018-07-23T00:02:53.958Z,0.00
2018-07-23T00:03:53.956Z,0.00
2018-07-23T00:04:53.951Z,0.00
2018-07-23T00:05:53.946Z,0.00
2018-07-23T00:06:53.942Z,0.00
2018-07-23T00:07:53.937Z,0.00
2018-07-23T00:08:53.933Z,0.00
2018-07-23T00:09:53.928Z,0.00
2018-07-23T00:10:53.923Z,0.00
2018-07-23T00:11:53.919Z,0.00
2018-07-23T00:12:53.955Z,0.00
2018-07-23T00:13:53.912Z,0.00
2018-07-23T00:14:53.905Z,0.00
2018-07-23T00:15:53.904Z,0.00
2018-07-23T00:16:54.067Z,0.00
2018-07-23T00:17:53.895Z,0.00
2018-07-23T00:18:53.889Z,0.00
2018-07-23T00:19:53.886Z,0.00
2018-07-23T00:20:53.881Z,0.00
2018-07-23T00:21:53.879Z,0.00
2018-07-23T00:22:53.904Z,0.00
2018-07-23T00:23:53.912Z,0.00
2018-07-23T00:24:53.878Z,0.00
2018-07-23T00:25:53.859Z,0.00
2018-07-23T00:26:53.855Z,0.00
2018-07-23T00:27:53.852Z,0.00
2018-07-23T00:28:53.847Z,0.00
2018-07-23T00:29:53.844Z,0.00
2018-07-23T00:30:53.836Z,0.00
2018-07-23T00:31:53.834Z,0.00
2018-07-23T00:32:53.827Z,0.00
2018-07-23T00:33:53.827Z,0.00
2018-07-23T00:34:53.812Z,0.00
2018-07-23T00:35:53.954Z,0.00
2018-07-23T00:36:53.864Z,0.00
2018-07-23T00:37:53.807Z,0.00
2018-07-23T00:38:53.802Z,0.00
2018-07-23T00:39:53.797Z,0.00
2018-07-23T00:40:53.796Z,0.00
2018-07-23T00:41:53.790Z,0.00
2018-07-23T00:42:53.789Z,0.00
2018-07-23T00:43:53.781Z,0.00
2018-07-23T00:44:53.778Z,0.00
2018-07-23T00:45:53.773Z,0.00
2018-07-23T00:46:53.772Z,0.00
2018-07-23T00:47:53.761Z,0.00
2018-07-23T00:48:53.787Z,0.00
2018-07-23T00:49:53.777Z,0.00
2018-07-23T00:50:53.750Z,0.00
2018-07-23T00:51:53.742Z,0.00
2018-07-23T00:52:53.743Z,0.00
2018-07-23T00:53:53.739Z,0.00
2018-07-23T00:54:53.734Z,0.00
2018-07-23T00:55:53.730Z,0.00
2018-07-23T00:56:53.726Z,0.00
2018-07-23T00:57:53.721Z,0.00
2018-07-23T00:58:53.717Z,0.00
2018-07-23T00:59:53.711Z,0.00
2018-07-23T01:00:53.710Z,0.00
2018-07-23T01:01:53.704Z,0.00
2018-07-23T01:02:53.793Z,0.00
2018-07-23T01:03:53.726Z,0.00
2018-07-23T01:04:53.692Z,0.00
2018-07-23T01:05:53.687Z,0.00
2018-07-23T01:06:53.680Z,0.00
2018-07-23T01:07:53.676Z,0.00
2018-07-23T01:08:53.673Z,0.00
2018-07-23T01:09:53.669Z,0.00
2018-07-23T01:10:53.663Z,0.00
2018-07-23T01:11:53.660Z,0.00
2018-07-23T01:12:53.664Z,0.00
2018-07-23T01:13:53.651Z,0.00
2018-07-23T01:14:53.651Z,0.00
2018-07-23T01:15:53.642Z,0.00
2018-07-23T01:16:53.637Z,0.00
2018-07-23T01:17:53.635Z,0.00
2018-07-23T01:18:53.629Z,0.00
2018-07-23T01:19:54.376Z,0.00
2018-07-23T01:20:53.621Z,0.00
2018-07-23T01:21:53.751Z,0.00
2018-07-23T01:22:53.612Z,0.00
2018-07-23T01:23:53.608Z,0.00
2018-07-23T01:24:53.603Z,0.00
2018-07-23T01:25:53.600Z,0.00
2018-07-23T01:26:53.594Z,0.00
2018-07-23T01:27:53.590Z,0.00
2018-07-23T01:28:53.586Z,0.00
2018-07-23T01:29:53.580Z,0.00
2018-07-23T01:30:53.577Z,0.00
2018-07-23T01:31:53.572Z,0.00
2018-07-23T01:32:53.569Z,0.00
2018-07-23T01:33:53.564Z,0.00
2018-07-23T01:34:53.559Z,0.00
2018-07-23T01:35:53.555Z,0.00
2018-07-23T01:36:53.551Z,0.00
2018-07-23T01:37:53.546Z,0.00
2018-07-23T01:38:53.542Z,0.00
2018-07-23T01:39:53.537Z,0.00
2018-07-23T01:40:53.534Z,0.00
2018-07-23T01:41:53.531Z,0.00
2018-07-23T01:42:53.524Z,0.00
2018-07-23T01:43:53.520Z,0.00
2018-07-23T01:44:53.521Z,0.00
2018-07-23T01:45:53.513Z,0.00
2018-07-23T01:46:53.508Z,0.00
2018-07-23T01:47:53.506Z,0.00
2018-07-23T01:48:53.499Z,0.00
2018-07-23T01:49:53.494Z,0.00
2018-07-23T01:50:53.489Z,0.00
2018-07-23T01:51:53.486Z,0.00
2018-07-23T01:52:53.482Z,0.00
2018-07-23T01:53:53.478Z,0.00
2018-07-23T01:54:53.474Z,0.00
2018-07-23T01:55:53.470Z,0.00
2018-07-23T01:56:53.463Z,0.00
2018-07-23T01:57:53.460Z,0.00
2018-07-23T01:58:53.456Z,0.00
2018-07-23T01:59:53.452Z,0.00
2018-07-23T02:00:53.451Z,0.00
2018-07-23T02:01:53.443Z,0.00
2018-07-23T02:02:53.436Z,0.00
2018-07-23T02:03:53.459Z,0.00
2018-07-23T02:04:53.432Z,0.00
2018-07-23T02:05:53.426Z,0.00
2018-07-23T02:06:53.420Z,0.00
2018-07-23T02:07:53.419Z,0.00
2018-07-23T02:08:53.411Z,0.00
2018-07-23T02:09:53.408Z,0.00
2018-07-23T02:10:53.402Z,0.00
2018-07-23T02:11:53.398Z,0.00
2018-07-23T02:12:53.394Z,0.00
2018-07-23T02:13:53.390Z,0.00
2018-07-23T02:14:53.384Z,0.00
2018-07-23T02:15:53.381Z,0.00
2018-07-23T02:16:53.377Z,0.00
2018-07-23T02:17:53.374Z,0.00
2018-07-23T02:18:53.373Z,0.00
2018-07-23T02:19:53.366Z,0.00
2018-07-23T02:20:53.358Z,0.00
2018-07-23T02:21:53.354Z,0.00
2018-07-23T02:22:53.349Z,0.00
2018-07-23T02:23:53.345Z,0.00
2018-07-23T02:24:53.340Z,0.00
2018-07-23T02:25:53.336Z,0.00
2018-07-23T02:26:53.332Z,0.00
2018-07-23T02:27:53.329Z,0.00
2018-07-23T02:28:53.324Z,0.00
2018-07-23T02:29:53.318Z,0.00
2018-07-23T02:30:53.316Z,0.00
2018-07-23T02:31:53.317Z,0.00
2018-07-23T02:32:53.308Z,0.00
2018-07-23T02:33:53.302Z,0.00
2018-07-23T02:34:53.298Z,0.00
2018-07-23T02:35:53.294Z,0.00
2018-07-23T02:36:53.289Z,0.00
2018-07-23T02:37:53.285Z,0.00
2018-07-23T02:38:53.279Z,0.00
2018-07-23T02:39:53.275Z,0.00
2018-07-23T02:40:53.273Z,0.00
2018-07-23T02:41:53.267Z,0.00
2018-07-23T02:42:53.261Z,0.00
2018-07-23T02:43:53.258Z,0.00
2018-07-23T02:44:53.253Z,0.00
2018-07-23T02:45:53.250Z,0.00
2018-07-23T02:46:53.245Z,0.00
2018-07-23T02:47:53.241Z,0.00
2018-07-23T02:48:53.235Z,0.00
2018-07-23T02:49:53.236Z,0.00
2018-07-23T02:50:53.230Z,0.00
2018-07-23T02:51:53.223Z,0.00
2018-07-23T02:52:53.218Z,0.00
2018-07-23T02:53:53.214Z,0.00
2018-07-23T02:54:53.209Z,0.00
2018-07-23T02:55:53.205Z,0.00
2018-07-23T02:56:53.201Z,0.00
2018-07-23T02:57:53.196Z,0.00
2018-07-23T02:58:53.191Z,0.00
2018-07-23T02:59:53.187Z,0.00
2018-07-23T03:00:53.182Z,0.00
2018-07-23T03:01:53.178Z,0.00
2018-07-23T03:02:53.179Z,0.00
2018-07-23T03:03:53.173Z,0.00
2018-07-23T03:04:53.167Z,0.00
2018-07-23T03:05:53.161Z,0.00
2018-07-23T03:06:53.156Z,0.00
2018-07-23T03:07:53.150Z,0.00
2018-07-23T03:08:53.148Z,0.00
2018-07-23T03:09:53.144Z,0.00
2018-07-23T03:10:53.138Z,0.00
2018-07-23T03:11:53.136Z,0.00
2018-07-23T03:12:53.130Z,0.00
2018-07-23T03:13:53.127Z,0.00
2018-07-23T03:14:53.120Z,0.00
2018-07-23T03:15:53.115Z,0.00
2018-07-23T03:16:53.111Z,0.00
2018-07-23T03:17:53.107Z,0.00
2018-07-23T03:18:53.100Z,0.00
2018-07-23T03:19:53.100Z,0.00
2018-07-23T03:20:53.094Z,0.00
2018-07-23T03:21:53.196Z,0.00
2018-07-23T03:22:53.090Z,0.00
2018-07-23T03:23:53.080Z,0.00
2018-07-23T03:24:53.078Z,0.00
2018-07-23T03:25:53.077Z,0.00
2018-07-23T03:26:53.067Z,0.00
2018-07-23T03:27:53.063Z,0.00
2018-07-23T03:28:53.059Z,0.00
2018-07-23T03:29:53.055Z,0.00
2018-07-23T03:30:53.049Z,0.00
2018-07-23T03:31:53.045Z,0.00
2018-07-23T03:32:53.039Z,0.00
2018-07-23T03:33:53.036Z,0.00
2018-07-23T03:34:53.032Z,0.00
2018-07-23T03:35:53.028Z,0.00
2018-07-23T03:36:54.974Z,0.00
2018-07-23T03:37:53.018Z,16.00
2018-07-23T03:38:53.012Z,16.00
2018-07-23T03:39:53.008Z,12.00
2018-07-23T03:40:53.003Z,8.00
2018-07-23T03:41:53.001Z,12.00
2018-07-23T03:42:52.994Z,16.00
2018-07-23T03:43:52.989Z,12.00
2018-07-23T03:44:52.983Z,16.00
2018-07-23T03:45:52.980Z,16.00
2018-07-23T03:46:52.973Z,20.00
2018-07-23T03:47:52.970Z,16.00
2018-07-23T03:48:52.965Z,20.00
2018-07-23T03:49:52.960Z,20.00
2018-07-23T03:50:52.952Z,24.00
2018-07-23T03:51:52.948Z,24.00
2018-07-23T03:52:52.942Z,24.00
2018-07-23T03:53:52.938Z,28.00
2018-07-23T03:54:52.930Z,32.00
2018-07-23T03:55:52.925Z,32.00
2018-07-23T03:56:52.922Z,32.00
2018-07-23T03:57:52.914Z,36.00
2018-07-23T03:58:52.910Z,40.00
2018-07-23T03:59:52.902Z,40.00
2018-07-23T04:00:52.906Z,40.00
2018-07-23T04:01:52.893Z,44.00
2018-07-23T04:02:52.886Z,44.00
2018-07-23T04:03:52.880Z,44.00
2018-07-23T04:04:52.875Z,48.00
2018-07-23T04:05:52.873Z,52.00
2018-07-23T04:06:52.864Z,52.00
2018-07-23T04:07:52.859Z,56.00
2018-07-23T04:08:52.851Z,56.00
2018-07-23T04:09:52.851Z,56.00
2018-07-23T04:10:52.870Z,60.00
2018-07-23T04:11:52.835Z,64.00
2018-07-23T04:12:52.831Z,64.00
2018-07-23T04:13:52.823Z,64.00
2018-07-23T04:14:52.820Z,68.00
2018-07-23T04:15:52.813Z,68.00
2018-07-23T04:16:52.807Z,72.00
2018-07-23T04:17:52.804Z,72.00
2018-07-23T04:18:52.794Z,72.00
2018-07-23T04:19:52.788Z,76.00
2018-07-23T04:20:52.783Z,76.00
2018-07-23T04:21:52.778Z,76.00
2018-07-23T04:22:52.770Z,80.00
2018-07-23T04:23:52.766Z,84.00
2018-07-23T04:24:52.759Z,84.00
2018-07-23T04:25:52.752Z,84.00
2018-07-23T04:26:52.747Z,88.00
2018-07-23T04:27:52.742Z,92.00
2018-07-23T04:28:52.735Z,92.00
2018-07-23T04:29:52.729Z,92.00
2018-07-23T04:30:52.726Z,96.00
2018-07-23T04:31:52.717Z,96.00
2018-07-23T04:32:52.713Z,96.00
2018-07-23T04:33:52.707Z,100.00
2018-07-23T04:34:52.701Z,104.00
2018-07-23T04:35:52.693Z,104.00
2018-07-23T04:36:52.689Z,104.00
2018-07-23T04:37:52.730Z,108.00
2018-07-23T04:38:52.677Z,108.00
2018-07-23T04:39:52.669Z,112.00
2018-07-23T04:40:52.656Z,112.00
2018-07-23T04:41:52.659Z,112.00
2018-07-23T04:42:52.652Z,116.00
2018-07-23T04:43:52.645Z,120.00
2018-07-23T04:44:52.640Z,124.00
2018-07-23T04:45:52.633Z,128.00
2018-07-23T04:46:52.628Z,128.00
2018-07-23T04:47:52.625Z,132.00
2018-07-23T04:48:52.615Z,132.00
2018-07-23T04:49:52.613Z,136.00
2018-07-23T04:50:52.605Z,140.00
2018-07-23T04:51:52.602Z,140.00
2018-07-23T04:52:52.592Z,140.00
2018-07-23T04:53:52.586Z,144.00
2018-07-23T04:54:52.592Z,148.00
2018-07-23T04:55:52.575Z,152.00
2018-07-23T04:56:52.719Z,156.00
2018-07-23T04:57:52.562Z,160.00
2018-07-23T04:58:52.556Z,164.00
2018-07-23T04:59:52.552Z,168.00
2018-07-23T05:00:52.546Z,168.00
2018-07-23T05:01:52.539Z,172.00
2018-07-23T05:02:52.531Z,176.00
2018-07-23T05:03:52.526Z,184.00
2018-07-23T05:04:52.522Z,184.00
2018-07-23T05:05:52.516Z,188.00
2018-07-23T05:06:52.507Z,188.00
2018-07-23T05:07:52.503Z,192.00
2018-07-23T05:08:52.497Z,196.00
2018-07-23T05:09:52.491Z,196.00
2018-07-23T05:10:52.487Z,200.00
2018-07-23T05:11:52.477Z,204.00
2018-07-23T05:12:52.471Z,204.00
2018-07-23T05:13:52.467Z,208.00
2018-07-23T05:14:52.462Z,212.00
2018-07-23T05:15:52.478Z,212.00
2018-07-23T05:16:52.449Z,216.00
2018-07-23T05:17:52.442Z,216.00
2018-07-23T05:18:52.436Z,220.00
2018-07-23T05:19:52.429Z,220.00
2018-07-23T05:20:52.427Z,224.00
2018-07-23T05:21:52.421Z,224.00
2018-07-23T05:22:52.413Z,228.00
2018-07-23T05:23:52.441Z,232.00
2018-07-23T05:24:52.400Z,236.00
2018-07-23T05:25:52.395Z,240.00
2018-07-23T05:26:52.389Z,248.00
2018-07-23T05:27:52.383Z,252.00
2018-07-23T05:28:52.376Z,260.00
2018-07-23T05:29:52.371Z,268.00
2018-07-23T05:30:52.364Z,276.00
2018-07-23T05:31:52.423Z,284.00
2018-07-23T05:32:52.353Z,288.00
2018-07-23T05:33:52.348Z,300.00
2018-07-23T05:34:52.341Z,308.00
2018-07-23T05:35:52.334Z,320.00
2018-07-23T05:36:52.330Z,344.00
2018-07-23T05:37:52.323Z,364.00
2018-07-23T05:38:52.316Z,368.00
2018-07-23T05:39:52.312Z,360.00
2018-07-23T05:40:52.305Z,364.00
2018-07-23T05:41:52.300Z,372.00
2018-07-23T05:42:52.292Z,380.00
2018-07-23T05:43:52.295Z,388.00
2018-07-23T05:44:52.280Z,396.00
2018-07-23T05:45:52.274Z,404.00
2018-07-23T05:46:52.266Z,416.00
2018-07-23T05:47:52.263Z,428.00
2018-07-23T05:48:52.256Z,436.00
2018-07-23T05:49:52.251Z,444.00
2018-07-23T05:50:52.245Z,444.00
2018-07-23T05:51:52.237Z,448.00
2018-07-23T05:52:52.230Z,452.00
2018-07-23T05:53:52.225Z,448.00
2018-07-23T05:54:52.221Z,456.00
2018-07-23T05:55:52.223Z,456.00
2018-07-23T05:56:52.208Z,460.00
2018-07-23T05:57:52.202Z,464.00
2018-07-23T05:58:52.233Z,468.00
2018-07-23T05:59:52.191Z,476.00
2018-07-23T06:00:52.185Z,476.00
2018-07-23T06:01:52.178Z,484.00
2018-07-23T06:02:52.172Z,488.00
2018-07-23T06:03:52.166Z,500.00
2018-07-23T06:04:52.160Z,508.00
2018-07-23T06:05:52.155Z,516.00
2018-07-23T06:06:52.244Z,528.00
2018-07-23T06:07:52.142Z,540.00
2018-07-23T06:08:52.137Z,552.00
2018-07-23T06:09:52.130Z,564.00
2018-07-23T06:10:52.124Z,568.00
2018-07-23T06:11:52.118Z,572.00
2018-07-23T06:12:52.114Z,568.00
2018-07-23T06:13:52.114Z,568.00
2018-07-23T06:14:52.103Z,560.00
2018-07-23T06:15:52.094Z,552.00
2018-07-23T06:16:52.089Z,544.00
2018-07-23T06:17:52.086Z,544.00
2018-07-23T06:18:52.079Z,544.00
2018-07-23T06:19:52.070Z,548.00
2018-07-23T06:20:52.065Z,556.00
2018-07-23T06:21:52.059Z,560.00
2018-07-23T06:22:52.055Z,560.00
2018-07-23T06:23:52.049Z,564.00
2018-07-23T06:24:52.041Z,572.00
2018-07-23T06:25:52.078Z,576.00
2018-07-23T06:26:52.075Z,588.00
2018-07-23T06:27:52.023Z,600.00
2018-07-23T06:28:52.018Z,616.00
2018-07-23T06:29:52.015Z,640.00
2018-07-23T06:30:52.014Z,660.00
2018-07-23T06:31:51.999Z,680.00
2018-07-23T06:32:51.994Z,708.00
2018-07-23T06:33:51.997Z,768.00
2018-07-23T06:34:51.984Z,828.00
2018-07-23T06:35:51.976Z,828.00
2018-07-23T06:36:51.970Z,864.00
2018-07-23T06:37:51.966Z,888.00
2018-07-23T06:38:51.961Z,972.00
2018-07-23T06:39:51.954Z,1032.00
2018-07-23T06:40:51.951Z,1052.00
2018-07-23T06:41:51.939Z,1064.00
2018-07-23T06:42:51.941Z,1040.00
2018-07-23T06:43:51.928Z,1032.00
2018-07-23T06:44:51.923Z,1004.00
2018-07-23T06:45:51.921Z,992.00
2018-07-23T06:46:51.910Z,972.00
2018-07-23T06:47:51.904Z,960.00
2018-07-23T06:48:51.899Z,960.00
2018-07-23T06:49:51.893Z,964.00
2018-07-23T06:50:51.886Z,968.00
2018-07-23T06:51:51.882Z,976.00
2018-07-23T06:52:51.875Z,992.00
2018-07-23T06:53:51.869Z,1012.00
2018-07-23T06:54:51.864Z,1036.00
2018-07-23T06:55:51.858Z,1056.00
2018-07-23T06:56:51.852Z,1068.00
2018-07-23T06:57:51.847Z,1084.00
2018-07-23T06:58:51.844Z,1092.00
2018-07-23T06:59:51.834Z,1100.00
2018-07-23T07:00:51.828Z,1104.00
2018-07-23T07:01:51.816Z,1112.00
2018-07-23T07:02:51.818Z,1116.00
2018-07-23T07:03:51.811Z,1128.00
2018-07-23T07:04:51.808Z,1140.00
2018-07-23T07:05:51.800Z,1152.00
2018-07-23T07:06:51.794Z,1152.00
2018-07-23T07:07:51.789Z,1156.00
2018-07-23T07:08:51.783Z,1160.00
2018-07-23T07:09:51.777Z,1164.00
2018-07-23T07:10:51.782Z,1176.00
2018-07-23T07:11:51.808Z,1192.00
2018-07-23T07:12:51.785Z,1208.00
2018-07-23T07:13:51.754Z,1220.00
2018-07-23T07:14:51.747Z,1232.00
2018-07-23T07:15:51.747Z,1244.00
2018-07-23T07:16:51.736Z,1252.00
2018-07-23T07:17:51.730Z,1248.00
2018-07-23T07:18:51.725Z,1236.00
2018-07-23T07:19:51.727Z,1240.00
2018-07-23T07:20:51.714Z,1248.00
2018-07-23T07:21:51.708Z,1228.00
2018-07-23T07:22:51.718Z,1264.00
2018-07-23T07:23:51.698Z,1252.00
2018-07-23T07:24:51.695Z,1236.00
2018-07-23T07:25:51.685Z,1264.00
2018-07-23T07:26:51.678Z,1296.00
2018-07-23T07:27:51.674Z,1328.00
2018-07-23T07:28:51.668Z,1336.00
2018-07-23T07:29:51.662Z,1348.00
2018-07-23T07:30:51.655Z,1360.00
2018-07-23T07:31:51.650Z,1352.00
2018-07-23T07:32:51.645Z,1340.00
2018-07-23T07:33:51.640Z,1320.00
2018-07-23T07:34:51.645Z,1304.00
2018-07-23T07:35:51.628Z,1296.00
2018-07-23T07:36:51.624Z,1300.00
2018-07-23T07:37:51.647Z,1320.00
2018-07-23T07:38:51.610Z,1352.00
2018-07-23T07:39:51.604Z,1388.00
2018-07-23T07:40:51.600Z,1436.00
2018-07-23T07:41:51.594Z,1392.00
2018-07-23T07:42:51.589Z,1360.00
2018-07-23T07:43:51.586Z,1344.00
2018-07-23T07:44:51.576Z,1336.00
2018-07-23T07:45:51.571Z,1328.00
2018-07-23T07:46:51.569Z,1328.00
2018-07-23T07:47:51.559Z,1340.00
2018-07-23T07:48:51.555Z,1360.00
2018-07-23T07:49:51.549Z,1376.00
2018-07-23T07:50:51.542Z,1408.00
2018-07-23T07:51:51.541Z,1444.00
2018-07-23T07:52:51.532Z,1480.00
2018-07-23T07:53:51.527Z,1528.00
2018-07-23T07:54:51.521Z,1556.00
2018-07-23T07:55:51.515Z,1592.00
2018-07-23T07:56:51.512Z,1968.00
2018-07-23T07:57:51.504Z,2236.00
2018-07-23T07:58:51.523Z,2268.00
2018-07-23T07:59:51.492Z,2280.00
2018-07-23T08:00:51.487Z,2288.00
2018-07-23T08:01:51.486Z,2340.00
2018-07-23T08:02:51.478Z,2236.00
2018-07-23T08:03:51.472Z,2044.00
2018-07-23T08:04:51.465Z,2028.00
2018-07-23T08:05:51.460Z,2036.00
2018-07-23T08:06:51.455Z,2220.00
2018-07-23T08:07:51.450Z,2308.00
2018-07-23T08:08:51.444Z,2300.00
2018-07-23T08:09:51.438Z,2312.00
2018-07-23T08:10:51.434Z,2332.00
2018-07-23T08:11:51.428Z,2364.00
2018-07-23T08:12:51.424Z,2396.00
2018-07-23T08:13:51.417Z,2396.00
2018-07-23T08:14:51.424Z,2408.00
2018-07-23T08:15:51.457Z,2424.00
2018-07-23T08:16:51.401Z,2436.00
2018-07-23T08:17:51.420Z,2448.00
2018-07-23T08:18:51.389Z,2456.00
2018-07-23T08:19:51.384Z,2448.00
2018-07-23T08:20:51.378Z,2464.00
2018-07-23T08:21:51.376Z,2460.00
2018-07-23T08:22:51.367Z,2468.00
2018-07-23T08:23:51.364Z,2484.00
2018-07-23T08:24:51.360Z,2484.00
2018-07-23T08:25:51.353Z,2492.00
2018-07-23T08:26:51.347Z,2524.00
2018-07-23T08:27:51.370Z,2536.00
2018-07-23T08:28:51.338Z,2556.00
2018-07-23T08:29:51.332Z,2576.00
2018-07-23T08:30:51.326Z,2580.00
2018-07-23T08:31:51.409Z,2592.00
2018-07-23T08:32:51.315Z,2588.00
2018-07-23T08:33:51.312Z,2600.00
2018-07-23T08:34:51.306Z,2600.00
2018-07-23T08:35:51.300Z,2620.00
2018-07-23T08:36:51.296Z,2660.00
2018-07-23T08:37:51.291Z,2668.00
2018-07-23T08:38:51.285Z,2700.00
2018-07-23T08:39:51.281Z,2712.00
2018-07-23T08:40:51.298Z,2724.00
2018-07-23T08:41:51.271Z,2740.00
2018-07-23T08:42:51.265Z,2756.00
2018-07-23T08:43:51.263Z,2768.00
2018-07-23T08:44:51.301Z,2776.00
2018-07-23T08:45:51.250Z,2780.00
2018-07-23T08:46:51.244Z,2788.00
2018-07-23T08:47:51.241Z,2796.00
2018-07-23T08:48:51.234Z,2800.00
2018-07-23T08:49:51.230Z,2824.00
2018-07-23T08:50:51.223Z,2844.00
2018-07-23T08:51:51.218Z,2856.00
2018-07-23T08:52:51.217Z,2868.00
2018-07-23T08:53:51.208Z,2876.00
2018-07-23T08:54:51.205Z,2884.00
2018-07-23T08:55:51.200Z,2884.00
2018-07-23T08:56:51.199Z,2896.00
2018-07-23T08:57:51.192Z,2908.00
2018-07-23T08:58:51.185Z,2928.00
2018-07-23T08:59:51.181Z,2936.00
2018-07-23T09:00:51.174Z,2940.00
2018-07-23T09:01:51.173Z,2932.00
2018-07-23T09:02:51.167Z,2936.00
2018-07-23T09:03:51.250Z,2932.00
2018-07-23T09:04:51.159Z,2936.00
2018-07-23T09:05:51.151Z,2928.00
2018-07-23T09:06:51.147Z,2932.00
2018-07-23T09:07:51.142Z,2916.00
2018-07-23T09:08:51.201Z,2932.00
2018-07-23T09:09:51.136Z,2948.00
2018-07-23T09:10:51.127Z,2972.00
2018-07-23T09:11:51.125Z,2984.00
2018-07-23T09:12:51.118Z,2988.00
2018-07-23T09:13:51.113Z,2988.00
2018-07-23T09:14:51.111Z,2984.00
2018-07-23T09:15:51.104Z,2944.00
2018-07-23T09:16:51.099Z,2944.00
2018-07-23T09:17:51.097Z,2932.00
2018-07-23T09:18:51.090Z,2968.00
2018-07-23T09:19:51.123Z,3032.00
2018-07-23T09:20:51.080Z,3080.00
2018-07-23T09:21:51.076Z,3088.00
2018-07-23T09:22:51.071Z,3108.00
2018-07-23T09:23:51.117Z,3108.00
2018-07-23T09:24:51.063Z,3096.00
2018-07-23T09:25:51.057Z,3088.00
2018-07-23T09:26:51.051Z,3088.00
2018-07-23T09:27:51.049Z,3096.00
2018-07-23T09:28:51.043Z,3084.00
2018-07-23T09:29:51.038Z,3076.00
2018-07-23T09:30:51.034Z,3088.00
2018-07-23T09:31:51.029Z,3060.00
2018-07-23T09:32:51.024Z,3068.00
2018-07-23T09:33:51.024Z,3056.00
2018-07-23T09:34:51.016Z,3072.00
2018-07-23T09:35:51.017Z,3056.00
2018-07-23T09:36:51.007Z,3060.00
2018-07-23T09:37:51.003Z,3112.00
2018-07-23T09:38:50.995Z,2968.00
2018-07-23T09:39:50.992Z,2936.00
2018-07-23T09:40:50.989Z,2732.00
2018-07-23T09:41:50.985Z,2300.00
2018-07-23T09:42:50.979Z,2308.00
2018-07-23T09:43:50.973Z,2380.00
2018-07-23T09:44:50.970Z,2804.00
2018-07-23T09:45:50.969Z,2216.00
2018-07-23T09:46:50.960Z,2628.00
2018-07-23T09:47:50.956Z,3288.00
2018-07-23T09:48:50.952Z,3220.00
2018-07-23T09:49:50.949Z,3192.00
2018-07-23T09:50:50.942Z,3220.00
2018-07-23T09:51:50.939Z,3188.00
2018-07-23T09:52:50.935Z,3152.00
2018-07-23T09:53:50.931Z,3156.00
2018-07-23T09:54:50.927Z,3104.00
2018-07-23T09:55:50.922Z,3116.00
2018-07-23T09:56:50.917Z,3084.00
2018-07-23T09:57:50.913Z,3012.00
2018-07-23T09:58:50.909Z,3052.00
2018-07-23T09:59:50.903Z,3080.00
2018-07-23T10:00:50.900Z,3136.00
2018-07-23T10:01:50.900Z,3156.00
2018-07-23T10:02:50.889Z,3120.00
2018-07-23T10:03:50.888Z,3128.00
2018-07-23T10:04:50.881Z,3148.00
2018-07-23T10:05:50.877Z,3128.00
2018-07-23T10:06:50.876Z,3076.00
2018-07-23T10:07:50.868Z,3088.00
2018-07-23T10:08:50.863Z,3120.00
2018-07-23T10:09:50.859Z,3144.00
2018-07-23T10:10:50.872Z,3148.00
2018-07-23T10:11:50.851Z,3168.00
2018-07-23T10:12:50.847Z,3164.00
2018-07-23T10:13:50.843Z,3156.00
2018-07-23T10:14:50.837Z,3152.00
2018-07-23T10:15:50.836Z,3144.00
2018-07-23T10:16:50.828Z,3144.00
2018-07-23T10:17:50.830Z,3132.00
2018-07-23T10:18:50.822Z,3120.00
2018-07-23T10:19:50.817Z,3148.00
2018-07-23T10:20:50.811Z,3152.00
2018-07-23T10:21:50.808Z,3156.00
2018-07-23T10:22:50.804Z,3144.00
2018-07-23T10:23:50.800Z,3128.00
2018-07-23T10:24:50.799Z,3128.00
2018-07-23T10:25:50.792Z,3128.00
2018-07-23T10:26:50.785Z,3120.00
2018-07-23T10:27:50.782Z,3120.00
2018-07-23T10:28:50.779Z,3124.00
2018-07-23T10:29:50.774Z,3136.00
2018-07-23T10:30:50.770Z,3120.00
2018-07-23T10:31:50.768Z,3100.00
2018-07-23T10:32:50.761Z,3128.00
2018-07-23T10:33:50.759Z,3144.00
2018-07-23T10:34:50.752Z,3144.00
2018-07-23T10:35:50.756Z,3148.00
2018-07-23T10:36:50.745Z,3152.00
2018-07-23T10:37:50.741Z,3144.00
2018-07-23T10:38:50.739Z,3132.00
2018-07-23T10:39:50.733Z,3112.00
2018-07-23T10:40:50.731Z,3088.00
2018-07-23T10:41:50.724Z,3080.00
2018-07-23T10:42:50.721Z,3064.00
2018-07-23T10:43:50.718Z,3028.00
2018-07-23T10:44:50.715Z,2996.00
2018-07-23T10:45:50.707Z,2996.00
2018-07-23T10:46:50.704Z,2996.00
2018-07-23T10:47:50.700Z,2992.00
2018-07-23T10:48:50.723Z,2944.00
2018-07-23T10:49:50.694Z,2908.00
2018-07-23T10:50:50.710Z,2880.00
2018-07-23T10:51:50.684Z,2856.00
2018-07-23T10:52:50.681Z,2856.00
2018-07-23T10:53:50.676Z,2848.00
2018-07-23T10:54:50.670Z,2856.00
2018-07-23T10:55:50.668Z,2876.00
2018-07-23T10:56:50.666Z,2852.00
2018-07-23T10:57:50.660Z,2856.00
2018-07-23T10:58:50.656Z,2812.00
2018-07-23T10:59:50.651Z,1624.00
2018-07-23T11:00:50.648Z,1536.00
2018-07-23T11:01:50.643Z,1480.00
2018-07-23T11:02:50.639Z,1448.00
2018-07-23T11:03:50.634Z,1408.00
2018-07-23T11:04:50.632Z,1392.00
2018-07-23T11:05:50.627Z,1376.00
2018-07-23T11:06:50.623Z,1352.00
2018-07-23T11:07:50.618Z,1340.00
2018-07-23T11:08:50.615Z,1320.00
2018-07-23T11:09:50.611Z,1288.00
2018-07-23T11:10:50.610Z,1292.00
2018-07-23T11:11:50.602Z,2512.00
2018-07-23T11:12:50.655Z,2552.00
2018-07-23T11:13:50.595Z,2536.00
2018-07-23T11:14:50.590Z,2532.00
2018-07-23T11:15:50.588Z,2556.00
2018-07-23T11:16:50.582Z,2596.00
2018-07-23T11:17:50.580Z,2604.00
2018-07-23T11:18:50.574Z,2604.00
2018-07-23T11:19:50.572Z,2604.00
2018-07-23T11:20:50.565Z,2640.00
2018-07-23T11:21:50.563Z,2644.00
2018-07-23T11:22:50.558Z,2648.00
2018-07-23T11:23:50.555Z,2612.00
2018-07-23T11:24:50.605Z,2572.00
2018-07-23T11:25:50.544Z,2536.00
2018-07-23T11:26:50.539Z,2528.00
2018-07-23T11:27:50.537Z,2512.00
2018-07-23T11:28:50.535Z,2508.00
2018-07-23T11:29:50.528Z,2504.00
2018-07-23T11:30:50.524Z,2492.00
2018-07-23T11:31:50.521Z,2472.00
2018-07-23T11:32:50.515Z,2436.00
2018-07-23T11:33:50.513Z,2412.00
2018-07-23T11:34:50.508Z,2420.00
2018-07-23T11:35:50.503Z,2432.00
2018-07-23T11:36:50.503Z,2408.00
2018-07-23T11:37:50.499Z,2412.00
2018-07-23T11:38:50.496Z,2388.00
2018-07-23T11:39:50.489Z,2372.00
2018-07-23T11:40:50.482Z,2364.00
2018-07-23T11:41:50.481Z,2324.00
2018-07-23T11:42:50.495Z,2324.00
2018-07-23T11:43:50.470Z,2320.00
2018-07-23T11:44:50.478Z,2284.00
2018-07-23T11:45:50.463Z,2316.00
2018-07-23T11:46:50.462Z,2308.00
2018-07-23T11:47:50.455Z,2284.00
2018-07-23T11:48:50.453Z,2232.00
2018-07-23T11:49:50.444Z,2212.00
2018-07-23T11:50:50.510Z,2156.00
2018-07-23T11:51:50.438Z,2136.00
2018-07-23T11:52:50.439Z,2136.00
2018-07-23T11:53:50.434Z,2156.00
2018-07-23T11:54:50.430Z,1564.00
2018-07-23T11:55:50.422Z,1384.00
2018-07-23T11:56:50.450Z,1732.00
2018-07-23T11:57:50.416Z,1380.00
2018-07-23T11:58:50.406Z,1392.00
2018-07-23T11:59:50.407Z,1556.00
2018-07-23T12:00:50.404Z,1352.00
2018-07-23T12:01:50.433Z,1296.00
2018-07-23T12:02:50.395Z,1264.00
2018-07-23T12:03:50.391Z,1228.00
2018-07-23T12:04:50.387Z,1212.00
2018-07-23T12:05:50.385Z,1196.00
2018-07-23T12:06:50.379Z,1184.00
2018-07-23T12:07:50.378Z,1724.00
2018-07-23T12:08:50.372Z,1752.00
2018-07-23T12:09:50.367Z,1632.00
2018-07-23T12:10:50.362Z,1752.00
2018-07-23T12:11:50.395Z,1760.00
2018-07-23T12:12:50.356Z,1768.00
2018-07-23T12:13:50.352Z,1768.00
2018-07-23T12:14:50.347Z,1768.00
2018-07-23T12:15:50.344Z,1752.00
2018-07-23T12:16:50.341Z,1736.00
2018-07-23T12:17:50.342Z,1720.00
2018-07-23T12:18:50.409Z,1716.00
2018-07-23T12:19:50.328Z,1700.00
2018-07-23T12:20:50.323Z,1680.00
2018-07-23T12:21:50.320Z,1656.00
2018-07-23T12:22:50.313Z,1656.00
2018-07-23T12:23:50.310Z,1648.00
2018-07-23T12:24:50.308Z,1624.00
2018-07-23T12:25:50.305Z,1604.00
2018-07-23T12:26:50.299Z,1596.00
2018-07-23T12:27:50.294Z,1584.00
2018-07-23T12:28:50.307Z,1564.00
2018-07-23T12:29:50.285Z,1560.00
2018-07-23T12:30:50.285Z,1560.00
2018-07-23T12:31:50.277Z,1552.00
2018-07-23T12:32:50.281Z,1536.00
2018-07-23T12:33:50.269Z,1516.00